Clemson, SC (29634)

4:57 AM EST on March 06, 2015 (GMT -0500)
CU Ent Dept | Change Station
CLOSE
Current Station
Personal Weather Station
Location: Clemson, SC
Elevation: 842 ft
Nearby Weather Stations
Active Advisory: Special Statement

Elev 842 ft 34.68 °N, 82.83 °W | Updated 39 seconds ago

Overcast
Overcast
33.0 °F
Feels Like 29 °F
N
4.0
Wind Variable Wind from NE
Gusts 7.0 mph

Today
High -- | Low -- °F
--% Chance of Precip.
Yesterday
High -- | Low -- °F
Precip. -- in
6:54 AM 6:31 PM
Full, 100% visible
Pressure 30.35 in
Visibility 10.0 miles
Clouds Overcast 4600 ft
Windchill 29 °F
Dew Point 25 °F
Humidity 71%
Rainfall in
Snow Depth Not available.
UV 0 out of 12
Pollen 3.20 out of 12
Air Quality Not available.
Flu Activity Not available.
METAR KCEU 060854Z AUTO 07010KT 10SM OVC046 03/M06 A3034 RMK AO2 SLP275 T00281056 53008

More Conditions Fewer Conditions

Pressure 30.35 in
Visibility 10.0 miles
Clouds Overcast 4600 ft
Windchill 29 °F
Dew Point 25 °F
Humidity 71%
Rainfall in
Snow Depth Not available.
UV 0 out of 12
Pollen 3.20 out of 12
Air Quality Not available.
Flu Activity Not available.
METAR KCEU 060854Z AUTO 07010KT 10SM OVC046 03/M06 A3034 RMK AO2 SLP275 T00281056 53008

More Conditions Fewer Conditions

10-Day Weather Forecast

Almanac

Astronomy

Mar. 06, 2015 Rise Set
Actual Time
Civil Twilight
Nautical Twilight
Astronomical Twilight
Moon
Length of Visible Light
Length of Day
Tomorrow will be .
, % of the Moon is Illuminated

Today's Extremes

State Highs State Lows

Community

WunderPhotos

Upload Photos

1,803,213 photos uploaded!

WunderBlogs® & News

Nearby

Air Quality

  Air Quality AQ Index Pollutant
Not available.

Snow Depth

Station Depth Elevation

Earthquake Activity

City Distance Mag. Time & Date
Minimum magnitude displayed is 2.5.

Coastal Water Temperatures

Place Temperature

Nearby Weather Stations

Special Statement
Statement as of 3:36 AM EST on March 06, 2015

... Patchy black ice possible this morning...

Temperatures will bottom out below freezing across much of
northeast Georgia and upstate South Carolina this morning. This
will create the potential for black ice to form on Road surfaces
wet from earlier rainfall. Drivers on area roadways should be
prepared to encounter very slippery spots. Some areas on roads
that appear clear may be covered by a thin layer of ice.

Wimberley

935 PM EST Thu Mar 5 2015

... Patchy black ice possible through Friday morning...

Temperatures will fall below freezing across northeast Georgia and
upstate South Carolina overnight. This will create the potential
for black ice to form on Road surfaces wet from the previous
rainfall refreeze. Drivers on area roadways should be prepared to
encounter very slippery spots. Some areas on roads that appear
clear may be covered by a thin layer of ice.